createdAt,value
2022-10-05T00:00:54.956Z,7.40
2022-10-05T00:03:36.997Z,9.30
2022-10-05T00:06:05.634Z,13.40
2022-10-05T00:08:35.784Z,12.20
2022-10-05T00:11:07.377Z,8.80
2022-10-05T00:13:35.699Z,9.50
2022-10-05T00:16:13.012Z,11.70
2022-10-05T00:18:41.364Z,11.80
2022-10-05T00:21:18.679Z,10.90
2022-10-05T00:23:47.372Z,7.00
2022-10-05T00:26:27.212Z,5.80
2022-10-05T00:28:55.529Z,7.80
2022-10-05T00:31:29.588Z,12.60
2022-10-05T00:33:58.128Z,6.70
2022-10-05T00:36:26.423Z,5.70
2022-10-05T00:38:55.143Z,9.40
2022-10-05T00:41:32.207Z,8.20
2022-10-05T00:44:08.938Z,7.50
2022-10-05T00:46:53.270Z,23.90
2022-10-05T00:50:05.348Z,13.00
2022-10-05T00:52:51.958Z,15.30
2022-10-05T00:56:04.154Z,7.90
2022-10-05T00:58:41.537Z,14.60
2022-10-05T01:01:38.854Z,11.50
2022-10-05T01:04:27.078Z,15.50
2022-10-05T01:07:13.093Z,16.20
2022-10-05T01:09:59.328Z,14.80
2022-10-05T01:12:45.526Z,16.40
2022-10-05T01:15:33.558Z,9.20
2022-10-05T01:18:01.380Z,16.20
2022-10-05T01:20:51.842Z,9.10
2022-10-05T01:23:38.462Z,7.80
2022-10-05T01:26:30.829Z,8.70
2022-10-05T01:28:58.977Z,6.80
2022-10-05T01:31:45.961Z,6.70
2022-10-05T01:34:44.684Z,9.70
2022-10-05T01:37:18.849Z,7.30
2022-10-05T01:39:58.803Z,10.20
2022-10-05T01:42:36.304Z,5.70
2022-10-05T01:45:09.843Z,6.60
2022-10-05T01:47:47.909Z,4.60
2022-10-05T01:50:24.604Z,7.60
2022-10-05T01:53:34.634Z,11.70
2022-10-05T01:56:10.514Z,12.50
2022-10-05T01:58:53.494Z,5.40
2022-10-05T02:01:35.957Z,4.60
2022-10-05T02:04:43.360Z,6.80
2022-10-05T02:07:16.751Z,4.90
2022-10-05T02:09:55.860Z,9.50
2022-10-05T02:12:28.622Z,5.20
2022-10-05T02:15:03.966Z,9.10
2022-10-05T02:17:50.866Z,18.00
2022-10-05T02:20:27.940Z,12.10
2022-10-05T02:23:06.213Z,5.00
2022-10-05T02:25:39.006Z,9.00
2022-10-05T02:28:37.377Z,32.00
2022-10-05T02:31:19.943Z,9.80
2022-10-05T02:33:49.094Z,24.00
2022-10-05T02:36:35.248Z,17.50
2022-10-05T02:39:32.229Z,11.70
2022-10-05T02:42:11.400Z,10.20
2022-10-05T02:44:52.768Z,10.20
2022-10-05T02:47:49.955Z,7.70
2022-10-05T02:50:50.722Z,7.70
2022-10-05T02:53:25.126Z,9.60
2022-10-05T02:56:08.889Z,7.20
2022-10-05T02:58:54.789Z,8.40
2022-10-05T03:01:28.187Z,10.50
2022-10-05T03:04:08.555Z,5.80
2022-10-05T03:07:00.636Z,9.10
2022-10-05T03:09:36.846Z,7.70
2022-10-05T03:12:33.492Z,6.90
2022-10-05T03:15:32.299Z,4.60
2022-10-05T03:18:23.924Z,22.50
2022-10-05T03:21:00.255Z,22.90
2022-10-05T03:23:40.155Z,7.00
2022-10-05T03:26:20.792Z,10.20
2022-10-05T03:29:14.705Z,8.30
2022-10-05T03:31:59.488Z,10.20
2022-10-05T03:34:45.477Z,14.40
2022-10-05T03:37:23.660Z,32.30
2022-10-05T03:39:56.229Z,8.50
2022-10-05T03:42:31.566Z,29.60
2022-10-05T03:45:22.316Z,9.70
2022-10-05T03:50:51.066Z,14.90
2022-10-05T03:53:27.622Z,18.10
2022-10-05T03:56:13.880Z,15.10
2022-10-05T03:58:59.357Z,15.60
2022-10-05T04:01:42.683Z,42.40
2022-10-05T04:04:19.145Z,16.80
2022-10-05T04:06:52.680Z,14.50
2022-10-05T04:09:39.814Z,13.70
2022-10-05T04:12:27.840Z,19.20
2022-10-05T04:15:40.015Z,22.60
2022-10-05T04:18:31.462Z,64.40
2022-10-05T04:21:11.551Z,82.20
2022-10-05T04:23:40.284Z,51.80
2022-10-05T04:26:14.831Z,33.60
2022-10-05T04:29:09.345Z,37.70
2022-10-05T04:31:48.844Z,19.30
2022-10-05T04:34:35.993Z,21.40
2022-10-05T04:37:10.983Z,12.50
2022-10-05T04:39:39.389Z,11.50
2022-10-05T04:42:27.381Z,10.60
2022-10-05T04:45:20.139Z,10.40
2022-10-05T04:48:28.032Z,5.60
2022-10-05T04:51:05.769Z,6.90
2022-10-05T04:53:50.964Z,8.20
2022-10-05T04:56:36.346Z,10.60
2022-10-05T04:59:54.134Z,5.10
2022-10-05T05:02:49.696Z,3.90
2022-10-05T05:06:12.121Z,9.40
2022-10-05T05:09:12.922Z,4.00
2022-10-05T05:12:05.723Z,5.70
2022-10-05T05:14:43.355Z,9.80
2022-10-05T05:17:42.595Z,7.90
2022-10-05T05:20:37.897Z,20.70
2022-10-05T05:23:08.810Z,10.10
2022-10-05T05:25:55.157Z,10.20
2022-10-05T05:28:41.309Z,9.10
2022-10-05T05:31:33.347Z,6.00
2022-10-05T05:34:13.412Z,4.90
2022-10-05T05:37:05.559Z,6.20
2022-10-05T05:39:41.724Z,6.50
2022-10-05T05:42:20.842Z,9.50
2022-10-05T05:44:53.559Z,14.70
2022-10-05T05:47:28.183Z,9.90
2022-10-05T05:50:17.233Z,6.60
2022-10-05T05:52:59.217Z,6.10
2022-10-05T05:55:35.956Z,11.40
2022-10-05T05:58:10.812Z,5.90
2022-10-05T06:00:57.122Z,5.80
2022-10-05T06:03:30.420Z,4.20
2022-10-05T06:06:04.591Z,13.80
2022-10-05T06:08:47.341Z,5.30
2022-10-05T06:11:43.675Z,15.90
2022-10-05T06:14:35.876Z,6.50
2022-10-05T06:17:13.620Z,8.80
2022-10-05T06:19:43.964Z,8.80
2022-10-05T06:22:18.072Z,9.10
2022-10-05T06:24:58.016Z,21.50
2022-10-05T06:27:39.209Z,12.30
2022-10-05T06:30:17.352Z,7.50
2022-10-05T06:33:04.080Z,10.10
2022-10-05T06:35:38.773Z,3.50
2022-10-05T06:38:23.461Z,3.10
2022-10-05T06:41:30.766Z,6.00
2022-10-05T06:44:00.742Z,5.90
2022-10-05T06:47:10.795Z,4.10
2022-10-05T06:50:29.688Z,7.60
2022-10-05T06:53:39.251Z,5.30
2022-10-05T06:56:19.440Z,5.30
2022-10-05T06:58:59.310Z,7.20
2022-10-05T07:01:37.545Z,6.60
2022-10-05T07:04:42.622Z,11.20
2022-10-05T07:07:20.312Z,10.50
2022-10-05T07:09:56.333Z,10.50
2022-10-05T07:12:40.255Z,6.90
2022-10-05T07:15:33.836Z,4.00
2022-10-05T07:18:20.622Z,4.80
2022-10-05T07:21:29.239Z,11.10
2022-10-05T07:24:35.733Z,7.60
2022-10-05T07:27:19.374Z,6.60
2022-10-05T07:29:56.826Z,8.70
2022-10-05T07:32:29.273Z,7.70
2022-10-05T07:35:39.068Z,8.20
2022-10-05T07:38:26.529Z,5.60
2022-10-05T07:41:01.109Z,5.00
2022-10-05T07:44:01.033Z,8.60
2022-10-05T07:47:06.453Z,5.20
2022-10-05T07:49:46.323Z,8.70
2022-10-05T07:52:22.284Z,6.00
2022-10-05T07:55:05.299Z,4.30
2022-10-05T07:57:40.831Z,6.40
2022-10-05T08:00:22.704Z,4.30
2022-10-05T08:03:10.055Z,7.70
2022-10-05T08:05:42.711Z,7.00
2022-10-05T08:08:10.983Z,4.30
2022-10-05T08:11:31.336Z,4.70
2022-10-05T08:14:20.503Z,4.00
2022-10-05T08:16:52.600Z,2.70
2022-10-05T08:19:30.219Z,3.00
2022-10-05T08:22:09.071Z,2.10
2022-10-05T08:24:59.647Z,2.30
2022-10-05T08:27:43.680Z,2.40
2022-10-05T08:30:15.849Z,1.80
2022-10-05T08:33:01.808Z,2.30
2022-10-05T08:35:44.032Z,4.30
2022-10-05T08:38:16.782Z,9.20
2022-10-05T08:40:51.723Z,18.00
2022-10-05T08:43:38.211Z,4.00
2022-10-05T08:46:15.133Z,7.90
2022-10-05T08:49:01.881Z,1.50
2022-10-05T08:51:51.071Z,4.30
2022-10-05T08:54:34.030Z,1.70
2022-10-05T08:57:24.005Z,1.60
2022-10-05T09:00:05.279Z,3.30
2022-10-05T09:03:04.190Z,12.30
2022-10-05T09:06:26.000Z,6.90
2022-10-05T09:09:29.997Z,3.00
2022-10-05T09:12:08.470Z,4.10
2022-10-05T09:15:01.305Z,6.20
2022-10-05T09:18:07.461Z,4.10
2022-10-05T09:23:43.806Z,2.20
2022-10-05T09:26:39.667Z,1.40
2022-10-05T09:29:20.085Z,2.70
2022-10-05T09:32:16.212Z,1.30
2022-10-05T09:35:22.442Z,2.80
2022-10-05T09:38:18.254Z,1.50
2022-10-05T09:40:55.383Z,1.40
2022-10-05T09:43:58.548Z,0.90
2022-10-05T09:46:44.636Z,2.10
2022-10-05T09:49:28.642Z,5.50
2022-10-05T09:52:30.697Z,1.60
2022-10-05T09:55:03.013Z,3.30
2022-10-05T09:58:22.690Z,6.60
2022-10-05T10:01:16.002Z,1.60
2022-10-05T10:04:18.322Z,1.70
2022-10-05T10:07:26.952Z,5.40
2022-10-05T10:10:29.557Z,4.10
2022-10-05T10:13:13.982Z,2.20
2022-10-05T10:16:00.114Z,2.50
2022-10-05T10:18:36.686Z,4.50
2022-10-05T10:21:22.847Z,1.90
2022-10-05T10:23:59.383Z,4.10
2022-10-05T10:26:36.342Z,0.80
2022-10-05T10:29:34.277Z,1.30
2022-10-05T10:32:20.913Z,6.00
2022-10-05T10:35:06.988Z,5.00
2022-10-05T10:37:59.808Z,1.40
2022-10-05T10:40:39.663Z,1.90
2022-10-05T10:43:35.351Z,7.10
2022-10-05T10:46:13.779Z,2.10
2022-10-05T10:48:53.161Z,1.60
2022-10-05T10:51:45.107Z,2.10
2022-10-05T10:54:18.917Z,3.30
2022-10-05T10:56:56.373Z,1.90
2022-10-05T10:59:31.609Z,1.60
2022-10-05T11:02:37.609Z,4.80
2022-10-05T11:05:27.541Z,1.40
2022-10-05T11:07:58.719Z,3.20
2022-10-05T11:10:59.057Z,3.40
2022-10-05T11:13:32.566Z,2.00
2022-10-05T11:16:19.901Z,1.80
2022-10-05T11:19:16.094Z,1.80
2022-10-05T11:22:19.297Z,1.40
2022-10-05T11:25:05.507Z,1.20
2022-10-05T11:28:00.939Z,1.30
2022-10-05T11:30:54.778Z,3.90
2022-10-05T11:33:53.355Z,2.20
2022-10-05T11:36:39.488Z,0.90
2022-10-05T11:39:19.328Z,2.50
2022-10-05T11:42:09.054Z,1.10
2022-10-05T11:45:03.855Z,1.00
2022-10-05T11:47:51.993Z,2.80
2022-10-05T11:50:39.247Z,6.00
2022-10-05T11:53:27.277Z,1.10
2022-10-05T11:56:13.422Z,5.00
2022-10-05T11:58:54.440Z,1.00
2022-10-05T12:01:43.933Z,2.40
2022-10-05T12:04:47.706Z,5.20
2022-10-05T12:07:34.271Z,1.40
2022-10-05T12:10:21.706Z,1.40
2022-10-05T12:13:28.953Z,1.60
2022-10-05T12:16:10.711Z,0.90
2022-10-05T12:18:48.419Z,1.80
2022-10-05T12:21:25.368Z,2.70
2022-10-05T12:24:08.649Z,3.30
2022-10-05T12:26:41.663Z,1.10
2022-10-05T12:29:46.490Z,3.10
2022-10-05T12:32:21.152Z,2.60
2022-10-05T12:35:02.011Z,2.70
2022-10-05T12:37:43.426Z,5.90
2022-10-05T12:40:41.933Z,1.80
2022-10-05T12:43:32.424Z,0.90
2022-10-05T12:46:08.492Z,3.70
2022-10-05T12:48:56.628Z,3.80
2022-10-05T12:51:40.015Z,1.00
2022-10-05T12:54:21.723Z,3.70
2022-10-05T12:56:59.158Z,1.50
2022-10-05T12:59:47.640Z,1.40
2022-10-05T13:02:49.468Z,2.20
2022-10-05T13:05:40.906Z,1.30
2022-10-05T13:08:14.037Z,2.10
2022-10-05T13:11:01.981Z,3.10
2022-10-05T13:13:41.091Z,9.30
2022-10-05T13:16:15.792Z,12.90
2022-10-05T13:19:06.660Z,8.20
2022-10-05T13:21:51.175Z,3.70
2022-10-05T13:24:47.238Z,2.80
2022-10-05T13:27:29.801Z,2.50
2022-10-05T13:30:02.448Z,4.00
2022-10-05T13:32:43.089Z,3.20
2022-10-05T13:35:32.600Z,3.90
2022-10-05T13:38:24.762Z,5.50
2022-10-05T13:41:13.397Z,2.60
2022-10-05T13:44:00.516Z,5.20
2022-10-05T13:46:58.182Z,2.50
2022-10-05T13:49:40.549Z,9.10
2022-10-05T13:52:09.155Z,1.40
2022-10-05T13:54:45.794Z,4.40
2022-10-05T13:57:23.261Z,2.30
2022-10-05T14:00:13.590Z,12.50
2022-10-05T14:05:22.107Z,5.50
2022-10-05T14:07:55.929Z,2.50
2022-10-05T14:10:36.714Z,5.90
2022-10-05T14:13:34.981Z,1.40
2022-10-05T14:16:20.906Z,4.60
2022-10-05T14:19:09.493Z,4.30
2022-10-05T14:22:11.301Z,2.70
2022-10-05T14:25:14.041Z,1.40
2022-10-05T14:28:03.795Z,1.40
2022-10-05T14:30:32.941Z,1.90
2022-10-05T14:33:03.641Z,1.60
2022-10-05T14:35:43.965Z,1.60
2022-10-05T14:41:17.924Z,2.90
2022-10-05T14:43:53.863Z,1.40
2022-10-05T14:46:27.866Z,3.20
2022-10-05T14:49:38.277Z,1.80
2022-10-05T14:52:32.540Z,1.20
2022-10-05T14:55:23.925Z,1.90
2022-10-05T14:58:05.624Z,5.20
2022-10-05T15:00:46.859Z,0.90
2022-10-05T15:03:19.787Z,1.00
2022-10-05T15:05:58.996Z,3.90
2022-10-05T15:08:53.407Z,1.20
2022-10-05T15:11:40.460Z,2.70
2022-10-05T15:14:22.385Z,2.50
2022-10-05T15:16:54.269Z,5.50
2022-10-05T15:19:53.098Z,2.20
2022-10-05T15:22:46.599Z,1.50
2022-10-05T15:25:37.265Z,1.20
2022-10-05T15:28:26.964Z,2.30
2022-10-05T15:31:03.448Z,1.30
2022-10-05T15:33:41.602Z,3.90
2022-10-05T15:36:23.015Z,1.60
2022-10-05T15:39:02.233Z,1.30
2022-10-05T15:41:35.773Z,3.70
2022-10-05T15:44:26.328Z,5.00
2022-10-05T15:46:58.794Z,2.60
2022-10-05T15:49:57.331Z,1.80
2022-10-05T15:52:36.096Z,4.40
2022-10-05T15:55:06.846Z,4.50
2022-10-05T15:58:08.151Z,3.10
2022-10-05T16:00:55.159Z,3.30
2022-10-05T16:03:48.990Z,2.80
2022-10-05T16:07:31.597Z,4.70
2022-10-05T16:10:11.632Z,6.20
2022-10-05T16:12:55.031Z,39.60
2022-10-05T16:15:43.300Z,8.80
2022-10-05T16:18:18.913Z,4.30
2022-10-05T16:20:57.156Z,9.20
2022-10-05T16:23:53.016Z,7.80
2022-10-05T16:26:31.870Z,8.90
2022-10-05T16:29:14.649Z,4.20
2022-10-05T16:31:54.393Z,6.60
2022-10-05T16:34:25.516Z,3.90
2022-10-05T16:37:31.119Z,4.50
2022-10-05T16:40:10.232Z,3.00
2022-10-05T16:42:44.280Z,4.00
2022-10-05T16:45:14.882Z,3.70
2022-10-05T16:47:50.436Z,6.10
2022-10-05T16:50:30.309Z,5.30
2022-10-05T16:53:04.904Z,7.30
2022-10-05T16:55:42.155Z,8.10
2022-10-05T16:58:47.561Z,11.50
2022-10-05T17:01:43.796Z,15.00
2022-10-05T17:04:39.242Z,11.00
2022-10-05T17:07:21.421Z,17.00
2022-10-05T17:09:59.466Z,17.00
2022-10-05T17:12:51.540Z,17.20
2022-10-05T17:15:40.591Z,18.10
2022-10-05T17:18:17.978Z,28.50
2022-10-05T17:21:08.029Z,25.50
2022-10-05T17:23:58.757Z,30.60
2022-10-05T17:26:47.184Z,31.40
2022-10-05T17:29:28.100Z,37.90
2022-10-05T17:32:09.286Z,30.10
2022-10-05T17:34:40.005Z,33.50
2022-10-05T17:37:35.846Z,52.60
2022-10-05T17:40:35.209Z,33.40
2022-10-05T17:43:15.621Z,44.70
2022-10-05T17:48:13.327Z,63.50
2022-10-05T17:51:03.415Z,43.80
2022-10-05T17:53:52.568Z,42.10
2022-10-05T17:56:22.988Z,49.20
2022-10-05T17:58:54.487Z,58.40
2022-10-05T18:01:32.858Z,49.30
2022-10-05T18:04:13.042Z,46.70
2022-10-05T18:06:44.666Z,58.40
2022-10-05T18:09:20.789Z,48.60
2022-10-05T18:12:16.459Z,49.90
2022-10-05T18:14:59.936Z,46.70
2022-10-05T18:17:45.223Z,43.40
2022-10-05T18:20:27.101Z,45.40
2022-10-05T18:23:05.916Z,42.10
2022-10-05T18:25:51.719Z,38.20
2022-10-05T18:28:28.610Z,39.70
2022-10-05T18:31:26.065Z,39.90
2022-10-05T18:34:15.459Z,42.50
2022-10-05T18:36:49.454Z,38.40
2022-10-05T18:39:37.353Z,50.10
2022-10-05T18:42:27.350Z,44.60
2022-10-05T18:47:48.100Z,45.80
2022-10-05T18:50:38.504Z,35.50
2022-10-05T18:56:10.735Z,31.00
2022-10-05T18:59:01.001Z,29.50
2022-10-05T19:02:16.987Z,30.90
2022-10-05T19:04:47.901Z,30.50
2022-10-05T19:07:27.857Z,25.40
2022-10-05T19:10:17.951Z,30.10
2022-10-05T19:13:16.291Z,21.50
2022-10-05T19:16:08.471Z,25.90
2022-10-05T19:19:01.287Z,25.30
2022-10-05T19:21:54.511Z,21.80
2022-10-05T19:25:09.928Z,27.60
2022-10-05T19:28:00.302Z,22.40
2022-10-05T19:30:47.432Z,23.40
2022-10-05T19:33:31.140Z,26.20
2022-10-05T19:36:02.091Z,25.30
2022-10-05T19:38:53.799Z,19.50
2022-10-05T19:41:46.068Z,27.10
2022-10-05T19:44:46.099Z,22.70
2022-10-05T19:47:44.398Z,21.90
2022-10-05T19:50:21.989Z,23.50
2022-10-05T19:52:57.429Z,19.90
2022-10-05T19:55:34.657Z,21.90
2022-10-05T19:58:19.081Z,21.80
2022-10-05T20:01:01.569Z,21.70
2022-10-05T20:03:31.825Z,21.20
2022-10-05T20:06:03.261Z,27.30
2022-10-05T20:09:18.203Z,20.10
2022-10-05T20:11:50.798Z,24.80
2022-10-05T20:14:32.814Z,18.70
2022-10-05T20:17:45.082Z,22.70
2022-10-05T20:20:34.356Z,14.20
2022-10-05T20:23:24.695Z,16.60
2022-10-05T20:26:11.865Z,21.70
2022-10-05T20:28:40.288Z,18.20
2022-10-05T20:31:09.020Z,18.20
2022-10-05T20:33:36.918Z,18.50
2022-10-05T20:36:05.002Z,22.70
2022-10-05T20:38:40.063Z,19.80
2022-10-05T20:41:09.204Z,15.50
2022-10-05T20:43:39.437Z,17.70
2022-10-05T20:46:07.706Z,15.60
2022-10-05T20:48:36.842Z,14.60
2022-10-05T20:51:05.161Z,13.90
2022-10-05T20:53:34.013Z,16.20
2022-10-05T20:56:04.668Z,20.30
2022-10-05T20:58:32.551Z,17.80
2022-10-05T21:01:18.604Z,14.90
2022-10-05T21:03:47.191Z,14.40
2022-10-05T21:06:15.248Z,15.60
2022-10-05T21:08:43.392Z,12.20
2022-10-05T21:11:11.679Z,16.10
2022-10-05T21:13:45.677Z,17.20
2022-10-05T21:16:17.190Z,18.80
2022-10-05T21:18:47.406Z,17.70
2022-10-05T21:21:18.620Z,16.90
2022-10-05T21:23:48.144Z,22.60
2022-10-05T21:26:16.409Z,18.10
2022-10-05T21:28:44.541Z,16.80
2022-10-05T21:31:13.262Z,20.30
2022-10-05T21:33:41.635Z,17.90
2022-10-05T21:36:10.127Z,14.10
2022-10-05T21:38:38.286Z,14.70
2022-10-05T21:41:08.048Z,14.50
2022-10-05T21:43:37.509Z,11.00
2022-10-05T21:46:06.243Z,12.40
2022-10-05T21:48:36.766Z,12.10
2022-10-05T21:53:39.037Z,13.70
2022-10-05T21:56:12.616Z,10.40
2022-10-05T21:58:44.717Z,10.90
2022-10-05T22:01:13.330Z,13.10
2022-10-05T22:03:41.705Z,10.10
2022-10-05T22:06:10.377Z,13.70
2022-10-05T22:08:38.303Z,10.80
2022-10-05T22:11:12.842Z,9.90
2022-10-05T22:13:46.699Z,11.70
2022-10-05T22:16:16.705Z,10.60
2022-10-05T22:18:45.142Z,15.20
2022-10-05T22:21:14.249Z,15.70
2022-10-05T22:23:43.767Z,11.00
2022-10-05T22:26:14.587Z,12.40
2022-10-05T22:28:43.487Z,14.60
2022-10-05T22:31:12.881Z,17.30
2022-10-05T22:33:41.324Z,11.40
2022-10-05T22:36:10.117Z,15.60
2022-10-05T22:38:38.290Z,10.50
2022-10-05T22:41:11.232Z,18.60
2022-10-05T22:43:39.350Z,14.00
2022-10-05T22:46:10.238Z,11.10
2022-10-05T22:48:39.170Z,14.00
2022-10-05T22:51:07.467Z,7.60
2022-10-05T22:53:36.129Z,8.40
2022-10-05T22:56:06.816Z,7.30
2022-10-05T22:58:35.609Z,11.00
2022-10-05T23:01:08.541Z,9.30
2022-10-05T23:03:36.949Z,9.50
2022-10-05T23:06:10.833Z,8.10
2022-10-05T23:08:39.916Z,10.60
2022-10-05T23:11:11.670Z,11.00
2022-10-05T23:13:40.553Z,7.70
2022-10-05T23:16:11.658Z,7.60
2022-10-05T23:18:41.130Z,11.40
2022-10-05T23:21:10.529Z,8.60
2022-10-05T23:23:40.833Z,10.00
2022-10-05T23:26:11.594Z,9.20
2022-10-05T23:28:43.354Z,12.40
2022-10-05T23:31:11.257Z,11.70
2022-10-05T23:33:39.229Z,6.40
2022-10-05T23:36:12.821Z,8.60
2022-10-05T23:38:41.686Z,12.40
2022-10-05T23:41:09.922Z,7.10
2022-10-05T23:43:38.083Z,9.40
2022-10-05T23:46:07.484Z,9.10
2022-10-05T23:48:39.170Z,14.10
2022-10-05T23:51:09.791Z,8.10
2022-10-05T23:56:06.349Z,13.40
2022-10-05T23:58:34.384Z,6.10
